Terminal Aerodrome Forecast
Issued by NWS Binghamton, NY

Home | Current Version | Previous Version | Text Only | Print | Product List | Glossary On
Versions: 1 2 3 4 5 6 7 8 9 10 11 12 13 14 15 16 17 18 19 20
000
FTUS41 KBGM 180315 AAA
TAFAVP
TAF AMD
KAVP 180315Z 1803/1824 VRB03KT P6SM SCT012 OVC022
      TEMPO 1803/1806 4SM -DZ BR OVC012
     FM180600 VRB03KT 2SM -DZ BR OVC008
     FM181500 29005KT P6SM -DZ OVC015=

USA.gov is the U.S. government's official web portal to all federal, state and local government web resources and services.